createdAt,value
2023-07-11T00:00:52.866Z,7.50
2023-07-11T00:03:19.825Z,8.30
2023-07-11T00:05:59.056Z,7.85
2023-07-11T00:08:25.663Z,6.80
2023-07-11T00:10:52.201Z,9.07
2023-07-11T00:13:18.831Z,5.95
2023-07-11T00:15:45.517Z,7.05
2023-07-11T00:18:12.165Z,8.25
2023-07-11T00:20:38.703Z,6.65
2023-07-11T00:23:05.408Z,5.40
2023-07-11T00:25:32.125Z,7.95
2023-07-11T00:27:58.703Z,7.30
2023-07-11T00:30:25.322Z,6.30
2023-07-11T00:32:52.072Z,6.72
2023-07-11T00:35:18.686Z,6.30
2023-07-11T00:37:45.276Z,5.90
2023-07-11T00:40:12.547Z,6.32
2023-07-11T00:42:39.123Z,6.05
2023-07-11T00:45:06.455Z,7.97
2023-07-11T00:47:33.229Z,7.55
2023-07-11T00:50:09.161Z,5.90
2023-07-11T00:52:37.876Z,10.48
2023-07-11T00:55:09.764Z,6.22
2023-07-11T00:57:40.678Z,6.53
2023-07-11T01:00:09.128Z,6.93
2023-07-11T01:02:35.952Z,7.38
2023-07-11T01:05:04.663Z,6.68
2023-07-11T01:07:35.819Z,7.30
2023-07-11T01:10:03.767Z,6.60
2023-07-11T01:12:30.635Z,7.03
2023-07-11T01:14:57.510Z,6.22
2023-07-11T01:17:28.422Z,6.68
2023-07-11T01:19:56.559Z,6.57
2023-07-11T01:22:24.763Z,7.30
2023-07-11T01:24:52.476Z,8.10
2023-07-11T01:27:21.125Z,7.60
2023-07-11T01:29:50.470Z,6.82
2023-07-11T01:32:18.502Z,6.95
2023-07-11T01:34:45.167Z,6.53
2023-07-11T01:37:12.248Z,7.10
2023-07-11T01:39:39.387Z,7.13
2023-07-11T01:42:06.454Z,7.85
2023-07-11T01:44:33.663Z,8.18
2023-07-11T01:47:03.341Z,8.07
2023-07-11T01:49:30.401Z,6.45
2023-07-11T01:52:12.436Z,9.18
2023-07-11T01:54:39.020Z,7.43
2023-07-11T01:57:06.703Z,7.32
2023-07-11T01:59:33.277Z,7.88
2023-07-11T02:01:59.869Z,6.97
2023-07-11T02:04:27.345Z,7.47
2023-07-11T02:06:54.565Z,16.92
2023-07-11T02:09:22.176Z,11.32
2023-07-11T02:11:49.633Z,8.57
2023-07-11T02:14:21.996Z,8.25
2023-07-11T02:19:20.000Z,7.28
2023-07-11T02:21:47.414Z,8.73
2023-07-11T02:24:16.379Z,7.47
2023-07-11T02:26:42.995Z,9.30
2023-07-11T02:29:10.050Z,8.68
2023-07-11T02:31:38.087Z,7.35
2023-07-11T02:34:05.145Z,8.90
2023-07-11T02:36:32.212Z,9.95
2023-07-11T02:38:59.537Z,8.80
2023-07-11T02:41:27.037Z,9.13
2023-07-11T02:43:53.896Z,10.88
2023-07-11T02:46:20.595Z,8.60
2023-07-11T02:48:47.265Z,8.45
2023-07-11T02:51:13.897Z,9.80
2023-07-11T02:53:40.506Z,8.15
2023-07-11T02:56:07.491Z,9.48
2023-07-11T02:58:34.308Z,10.88
2023-07-11T03:01:03.043Z,7.45
2023-07-11T03:03:29.751Z,9.35
2023-07-11T03:05:57.279Z,9.63
2023-07-11T03:08:24.432Z,9.02
2023-07-11T03:10:51.147Z,9.77
2023-07-11T03:13:19.379Z,7.75
2023-07-11T03:15:46.015Z,8.60
2023-07-11T03:18:14.053Z,9.45
2023-07-11T03:20:41.958Z,8.05
2023-07-11T03:23:11.069Z,7.28
2023-07-11T03:25:38.002Z,9.52
2023-07-11T03:28:05.129Z,7.28
2023-07-11T03:30:36.456Z,7.55
2023-07-11T03:33:03.764Z,9.00
2023-07-11T03:35:31.175Z,7.25
2023-07-11T03:37:57.771Z,9.52
2023-07-11T03:40:25.327Z,7.35
2023-07-11T03:42:52.673Z,10.00
2023-07-11T03:45:19.585Z,7.47
2023-07-11T03:47:46.165Z,8.18
2023-07-11T03:50:12.813Z,11.23
2023-07-11T03:52:39.375Z,7.85
2023-07-11T03:55:06.501Z,8.68
2023-07-11T03:57:33.054Z,7.07
2023-07-11T03:59:59.655Z,9.50
2023-07-11T04:02:26.327Z,9.82
2023-07-11T04:04:52.962Z,7.82
2023-07-11T04:07:19.608Z,8.02
2023-07-11T04:09:46.237Z,9.13
2023-07-11T04:12:12.784Z,9.73
2023-07-11T04:14:39.661Z,8.25
2023-07-11T04:17:06.353Z,7.80
2023-07-11T04:19:33.000Z,9.07
2023-07-11T04:21:59.587Z,9.98
2023-07-11T04:24:26.264Z,9.45
2023-07-11T04:26:52.810Z,8.55
2023-07-11T04:29:19.553Z,8.63
2023-07-11T04:31:46.183Z,10.77
2023-07-11T04:34:12.886Z,8.98
2023-07-11T04:36:39.513Z,8.32
2023-07-11T04:39:06.098Z,9.43
2023-07-11T04:41:32.821Z,10.40
2023-07-11T04:43:59.371Z,11.02
2023-07-11T04:46:26.883Z,8.57
2023-07-11T04:48:53.504Z,9.27
2023-07-11T04:51:20.282Z,8.32
2023-07-11T04:53:47.238Z,8.43
2023-07-11T04:56:14.036Z,7.68
2023-07-11T04:58:41.046Z,8.93
2023-07-11T05:01:10.462Z,7.43
2023-07-11T05:03:37.410Z,8.45
2023-07-11T05:06:05.704Z,11.07
2023-07-11T05:08:32.947Z,9.85
2023-07-11T05:11:06.387Z,7.68
2023-07-11T05:13:34.606Z,8.70
2023-07-11T05:16:08.165Z,7.70
2023-07-11T05:18:44.064Z,6.78
2023-07-11T05:21:14.069Z,10.05
2023-07-11T05:23:41.085Z,8.75
2023-07-11T05:26:08.816Z,9.45
2023-07-11T05:28:36.264Z,7.85
2023-07-11T05:31:04.991Z,8.05
2023-07-11T05:33:32.050Z,10.00
2023-07-11T05:36:20.726Z,8.73
2023-07-11T05:38:47.300Z,7.90
2023-07-11T05:41:14.229Z,10.40
2023-07-11T05:43:40.827Z,8.98
2023-07-11T05:46:07.639Z,10.43
2023-07-11T05:48:34.639Z,7.38
2023-07-11T05:51:03.841Z,8.05
2023-07-11T05:53:30.482Z,7.97
2023-07-11T05:55:58.575Z,11.10
2023-07-11T05:58:26.799Z,9.90
2023-07-11T06:00:54.834Z,8.18
2023-07-11T06:03:24.121Z,9.80
2023-07-11T06:05:51.545Z,8.77
2023-07-11T06:08:18.872Z,11.27
2023-07-11T06:10:45.726Z,8.82
2023-07-11T06:13:13.856Z,10.73
2023-07-11T06:15:40.771Z,7.80
2023-07-11T06:18:08.151Z,7.25
2023-07-11T06:20:34.926Z,7.53
2023-07-11T06:23:01.673Z,7.25
2023-07-11T06:25:28.244Z,10.35
2023-07-11T06:27:54.847Z,7.70
2023-07-11T06:30:21.622Z,10.48
2023-07-11T06:32:48.239Z,7.80
2023-07-11T06:35:14.941Z,7.97
2023-07-11T06:37:42.179Z,7.93
2023-07-11T06:40:10.146Z,11.98
2023-07-11T06:42:37.089Z,7.97
2023-07-11T06:45:04.569Z,7.07
2023-07-11T06:47:31.276Z,8.55
2023-07-11T06:49:57.875Z,6.38
2023-07-11T06:52:24.503Z,7.35
2023-07-11T06:54:51.168Z,5.65
2023-07-11T06:57:19.687Z,6.35
2023-07-11T06:59:48.547Z,8.00
2023-07-11T07:04:41.801Z,8.10
2023-07-11T07:07:08.430Z,9.10
2023-07-11T07:09:35.043Z,6.88
2023-07-11T07:12:01.696Z,9.52
2023-07-11T07:14:28.396Z,7.43
2023-07-11T07:16:55.035Z,7.15
2023-07-11T07:19:21.613Z,6.00
2023-07-11T07:21:48.191Z,6.00
2023-07-11T07:24:14.765Z,7.88
2023-07-11T07:26:42.596Z,5.55
2023-07-11T07:29:09.511Z,4.75
2023-07-11T07:31:36.151Z,6.40
2023-07-11T07:34:02.991Z,7.88
2023-07-11T07:36:29.555Z,9.25
2023-07-11T07:38:56.203Z,6.78
2023-07-11T07:41:22.954Z,7.65
2023-07-11T07:43:49.664Z,6.25
2023-07-11T07:46:18.369Z,4.53
2023-07-11T07:48:45.928Z,5.18
2023-07-11T07:53:42.046Z,5.43
2023-07-11T07:56:12.741Z,4.47
2023-07-11T07:58:43.963Z,5.45
2023-07-11T08:01:15.547Z,5.22
2023-07-11T08:03:43.130Z,4.80
2023-07-11T08:06:16.088Z,11.18
2023-07-11T08:08:45.381Z,6.38
2023-07-11T08:11:12.771Z,5.45
2023-07-11T08:13:53.633Z,6.93
2023-07-11T08:16:31.812Z,8.68
2023-07-11T08:19:01.037Z,5.03
2023-07-11T08:21:27.772Z,8.32
2023-07-11T08:23:54.440Z,4.40
2023-07-11T08:26:23.354Z,3.97
2023-07-11T08:28:53.096Z,4.75
2023-07-11T08:31:20.022Z,6.45
2023-07-11T08:33:46.970Z,4.43
2023-07-11T08:36:14.215Z,6.28
2023-07-11T08:38:40.793Z,5.22
2023-07-11T08:41:13.086Z,5.65
2023-07-11T08:43:40.324Z,6.68
2023-07-11T08:46:13.183Z,5.60
2023-07-11T08:48:51.135Z,4.82
2023-07-11T08:51:26.869Z,5.45
2023-07-11T08:54:40.006Z,5.18
2023-07-11T08:57:10.645Z,4.20
2023-07-11T08:59:55.980Z,3.92
2023-07-11T09:02:32.179Z,6.05
2023-07-11T09:05:00.466Z,4.63
2023-07-11T09:07:37.924Z,5.25
2023-07-11T09:10:38.676Z,3.92
2023-07-11T09:13:17.038Z,5.97
2023-07-11T09:16:06.810Z,5.18
2023-07-11T09:18:56.850Z,5.63
2023-07-11T09:21:32.412Z,5.00
2023-07-11T09:24:21.763Z,4.55
2023-07-11T09:26:51.125Z,6.63
2023-07-11T09:29:20.705Z,5.82
2023-07-11T09:31:54.319Z,5.18
2023-07-11T09:34:27.125Z,5.68
2023-07-11T09:37:00.412Z,4.53
2023-07-11T09:39:48.506Z,6.13
2023-07-11T09:42:39.418Z,8.20
2023-07-11T09:45:19.600Z,4.32
2023-07-11T09:47:52.958Z,8.32
2023-07-11T09:50:39.109Z,9.55
2023-07-11T09:53:20.306Z,5.88
2023-07-11T09:55:49.967Z,4.47
2023-07-11T09:58:18.838Z,4.85
2023-07-11T10:00:52.047Z,4.75
2023-07-11T10:03:23.577Z,5.88
2023-07-11T10:05:53.214Z,5.15
2023-07-11T10:08:28.175Z,5.95
2023-07-11T10:13:26.355Z,3.38
2023-07-11T10:16:00.434Z,4.20
2023-07-11T10:18:31.723Z,7.72
2023-07-11T10:21:03.084Z,7.00
2023-07-11T10:23:29.896Z,8.55
2023-07-11T10:26:16.607Z,5.45
2023-07-11T10:28:48.412Z,5.40
2023-07-11T10:31:21.538Z,5.63
2023-07-11T10:33:57.460Z,4.97
2023-07-11T10:36:32.123Z,6.47
2023-07-11T10:39:05.679Z,4.60
2023-07-11T10:41:41.736Z,5.03
2023-07-11T10:44:16.313Z,5.03
2023-07-11T10:46:51.761Z,5.95
2023-07-11T10:49:51.595Z,8.55
2023-07-11T10:52:25.069Z,4.70
2023-07-11T10:54:56.649Z,10.10
2023-07-11T10:57:44.022Z,9.85
2023-07-11T11:00:17.564Z,5.22
2023-07-11T11:02:47.127Z,5.95
2023-07-11T11:05:39.243Z,5.68
2023-07-11T11:08:15.576Z,5.10
2023-07-11T11:10:53.252Z,3.70
2023-07-11T11:13:32.081Z,6.22
2023-07-11T11:16:32.695Z,5.80
2023-07-11T11:19:34.319Z,7.13
2023-07-11T11:22:17.193Z,5.28
2023-07-11T11:25:01.332Z,5.70
2023-07-11T11:28:17.289Z,5.50
2023-07-11T11:31:22.565Z,5.65
2023-07-11T11:36:29.399Z,5.15
2023-07-11T11:39:11.219Z,4.00
2023-07-11T11:41:44.519Z,3.70
2023-07-11T11:49:39.390Z,11.43
2023-07-11T11:52:08.658Z,6.47
2023-07-11T11:54:47.796Z,7.15
2023-07-11T11:57:25.123Z,11.55
2023-07-11T11:59:52.612Z,6.70
2023-07-11T12:02:27.152Z,5.40
2023-07-11T12:05:18.300Z,6.20
2023-07-11T12:07:48.046Z,6.80
2023-07-11T12:10:23.697Z,4.50
2023-07-11T12:13:17.444Z,4.78
2023-07-11T12:15:49.044Z,8.10
2023-07-11T12:18:28.700Z,7.55
2023-07-11T12:21:17.813Z,5.38
2023-07-11T12:24:30.209Z,5.18
2023-07-11T12:26:36.431Z,5.35
2023-07-11T12:29:40.153Z,6.47
2023-07-11T12:32:47.539Z,6.70
2023-07-11T12:35:24.082Z,7.47
2023-07-11T12:38:02.479Z,5.35
2023-07-11T12:40:38.873Z,7.53
2023-07-11T12:43:16.574Z,5.25
2023-07-11T12:45:48.952Z,5.60
2023-07-11T12:48:24.121Z,7.32
2023-07-11T12:50:56.777Z,5.68
2023-07-11T12:53:23.374Z,7.85
2023-07-11T12:55:53.087Z,7.22
2023-07-11T12:58:32.343Z,6.05
2023-07-11T13:01:00.071Z,6.97
2023-07-11T13:03:37.504Z,7.88
2023-07-11T13:06:22.070Z,7.60
2023-07-11T13:08:49.480Z,7.93
2023-07-11T13:11:21.708Z,9.65
2023-07-11T13:13:49.461Z,10.55
2023-07-11T13:16:16.417Z,9.10
2023-07-11T13:18:45.818Z,7.47
2023-07-11T13:21:12.881Z,9.25
2023-07-11T13:23:42.799Z,9.25
2023-07-11T13:26:11.908Z,9.68
2023-07-11T13:28:40.362Z,10.45
2023-07-11T13:38:51.971Z,10.52
2023-07-11T13:43:47.601Z,10.68
2023-07-11T13:46:16.395Z,10.85
2023-07-11T13:48:47.253Z,10.05
2023-07-11T13:51:34.353Z,9.23
2023-07-11T13:54:22.574Z,11.10
2023-07-11T13:56:49.494Z,8.23
2023-07-11T13:59:18.257Z,8.07
2023-07-11T14:01:45.814Z,8.13
2023-07-11T14:04:21.249Z,11.68
2023-07-11T14:06:48.158Z,10.35
2023-07-11T14:09:14.804Z,9.05
2023-07-11T14:11:45.488Z,11.07
2023-07-11T14:14:24.865Z,10.18
2023-07-11T14:17:01.795Z,11.95
2023-07-11T14:19:33.990Z,10.43
2023-07-11T14:22:03.702Z,13.85
2023-07-11T14:24:30.338Z,9.88
2023-07-11T14:26:56.910Z,9.13
2023-07-11T14:29:25.514Z,10.75
2023-07-11T14:31:53.721Z,9.85
2023-07-11T14:34:26.229Z,10.55
2023-07-11T14:36:54.934Z,8.38
2023-07-11T14:39:22.381Z,10.38
2023-07-11T14:41:50.783Z,10.88
2023-07-11T14:46:52.011Z,8.70
2023-07-11T14:49:19.915Z,9.07
2023-07-11T14:51:48.261Z,11.98
2023-07-11T14:59:23.313Z,11.15
2023-07-11T15:01:51.236Z,13.32
2023-07-11T15:11:52.235Z,13.20
2023-07-11T15:16:52.840Z,11.23
2023-07-11T15:19:26.839Z,10.00
2023-07-11T15:22:07.959Z,10.15
2023-07-11T15:24:45.406Z,12.55
2023-07-11T15:27:17.569Z,9.98
2023-07-11T15:29:44.285Z,11.60
2023-07-11T15:32:23.416Z,9.73
2023-07-11T15:34:50.616Z,8.63
2023-07-11T15:37:17.960Z,8.90
2023-07-11T15:39:44.590Z,11.13
2023-07-11T15:42:20.038Z,8.63
2023-07-11T15:44:52.846Z,12.95
2023-07-11T15:47:19.686Z,12.75
2023-07-11T15:49:46.936Z,13.55
2023-07-11T15:52:13.588Z,10.32
2023-07-11T15:54:40.216Z,8.57
2023-07-11T15:57:27.733Z,10.38
2023-07-11T15:59:56.605Z,9.80
2023-07-11T16:02:25.158Z,10.88
2023-07-11T16:04:52.818Z,9.25
2023-07-11T16:07:22.075Z,11.00
2023-07-11T16:09:49.012Z,11.35
2023-07-11T16:12:17.548Z,9.93
2023-07-11T16:14:45.566Z,12.75
2023-07-11T16:17:17.211Z,9.07
2023-07-11T16:19:47.657Z,9.90
2023-07-11T16:22:18.294Z,10.55
2023-07-11T16:24:45.563Z,11.85
2023-07-11T16:27:18.147Z,14.52
2023-07-11T16:29:48.662Z,14.32
2023-07-11T16:32:16.223Z,12.50
2023-07-11T16:34:44.997Z,10.48
2023-07-11T16:37:21.289Z,10.93
2023-07-11T16:39:48.926Z,10.20
2023-07-11T16:42:20.080Z,13.43
2023-07-11T16:44:46.719Z,11.80
2023-07-11T16:47:13.435Z,12.18
2023-07-11T16:49:40.949Z,10.90
2023-07-11T16:52:13.747Z,9.48
2023-07-11T16:54:41.096Z,12.93
2023-07-11T16:57:17.484Z,10.57
2023-07-11T16:59:44.156Z,10.57
2023-07-11T17:02:34.179Z,11.82
2023-07-11T17:05:01.170Z,10.05
2023-07-11T17:07:30.395Z,12.45
2023-07-11T17:09:58.789Z,15.55
2023-07-11T17:12:26.331Z,11.13
2023-07-11T17:14:53.780Z,10.05
2023-07-11T17:17:27.254Z,14.32
2023-07-11T17:19:57.315Z,10.02
2023-07-11T17:22:24.523Z,10.38
2023-07-11T17:24:51.185Z,12.18
2023-07-11T17:27:23.033Z,10.98
2023-07-11T17:29:52.324Z,12.43
2023-07-11T17:32:22.781Z,10.98
2023-07-11T17:34:50.412Z,11.23
2023-07-11T17:37:31.073Z,10.90
2023-07-11T17:39:58.474Z,11.90
2023-07-11T17:42:26.320Z,11.27
2023-07-11T17:44:56.766Z,12.55
2023-07-11T17:49:59.084Z,10.82
2023-07-11T17:52:29.173Z,11.85
2023-07-11T17:54:56.198Z,11.38
2023-07-11T17:57:27.867Z,14.68
2023-07-11T17:59:54.627Z,17.10
2023-07-11T18:02:27.367Z,12.00
2023-07-11T18:04:56.828Z,13.18
2023-07-11T18:07:26.244Z,10.82
2023-07-11T18:09:53.604Z,11.18
2023-07-11T18:12:29.675Z,10.00
2023-07-11T18:14:56.870Z,9.75
2023-07-11T18:17:27.701Z,8.98
2023-07-11T18:19:54.395Z,9.35
2023-07-11T18:22:26.121Z,11.52
2023-07-11T18:24:55.828Z,13.23
2023-07-11T18:27:28.868Z,11.63
2023-07-11T18:29:56.004Z,11.60
2023-07-11T18:32:25.245Z,10.48
2023-07-11T18:34:55.194Z,11.15
2023-07-11T18:37:23.592Z,11.82
2023-07-11T18:39:50.369Z,12.38
2023-07-11T18:42:22.704Z,9.88
2023-07-11T18:44:51.390Z,10.68
2023-07-11T18:47:34.053Z,11.65
2023-07-11T18:50:01.108Z,12.07
2023-07-11T18:52:29.669Z,12.00
2023-07-11T18:54:58.359Z,14.10
2023-07-11T18:57:29.231Z,14.77
2023-07-11T18:59:56.727Z,11.35
2023-07-11T19:02:28.756Z,15.40
2023-07-11T19:04:58.223Z,11.30
2023-07-11T19:07:30.235Z,12.68
2023-07-11T19:09:59.123Z,11.05
2023-07-11T19:12:37.172Z,10.65
2023-07-11T19:15:11.768Z,12.00
2023-07-11T19:17:58.474Z,12.25
2023-07-11T19:20:30.649Z,12.25
2023-07-11T19:22:59.351Z,12.43
2023-07-11T19:25:28.824Z,13.43
2023-07-11T19:28:00.904Z,10.10
2023-07-11T19:30:29.735Z,11.32
2023-07-11T19:32:58.457Z,11.65
2023-07-11T19:35:27.377Z,11.32
2023-07-11T19:37:57.303Z,12.25
2023-07-11T19:40:28.258Z,11.43
2023-07-11T19:42:55.759Z,11.40
2023-07-11T19:45:25.366Z,11.55
2023-07-11T19:47:52.087Z,11.05
2023-07-11T19:50:40.344Z,13.13
2023-07-11T19:53:09.489Z,12.98
2023-07-11T19:55:37.353Z,11.63
2023-07-11T19:58:05.598Z,11.40
2023-07-11T20:00:33.904Z,12.00
2023-07-11T20:03:01.252Z,13.43
2023-07-11T20:05:28.907Z,14.90
2023-07-11T20:07:56.358Z,11.95
2023-07-11T20:10:42.074Z,11.98
2023-07-11T20:13:15.261Z,12.00
2023-07-11T20:15:53.747Z,13.70
2023-07-11T20:18:22.245Z,11.57
2023-07-11T20:20:54.308Z,12.52
2023-07-11T20:23:21.100Z,11.93
2023-07-11T20:25:53.364Z,11.27
2023-07-11T20:28:21.776Z,11.35
2023-07-11T20:30:55.245Z,14.07
2023-07-11T20:33:22.643Z,13.00
2023-07-11T20:35:52.439Z,11.57
2023-07-11T20:38:22.498Z,11.52
2023-07-11T20:40:50.464Z,11.48
2023-07-11T20:43:18.583Z,13.52
2023-07-11T20:45:47.778Z,12.70
2023-07-11T20:48:22.793Z,10.57
2023-07-11T20:50:51.705Z,12.88
2023-07-11T20:53:21.868Z,12.20
2023-07-11T20:55:52.733Z,11.27
2023-07-11T20:58:19.671Z,10.70
2023-07-11T21:00:46.996Z,12.75
2023-07-11T21:03:15.389Z,12.95
2023-07-11T21:05:44.412Z,12.85
2023-07-11T21:08:31.760Z,12.77
2023-07-11T21:11:01.430Z,12.88
2023-07-11T21:13:28.150Z,11.75
2023-07-11T21:15:55.961Z,13.05
2023-07-11T21:18:24.228Z,12.75
2023-07-11T21:20:54.905Z,12.30
2023-07-11T21:23:22.929Z,13.07
2023-07-11T21:25:49.906Z,12.45
2023-07-11T21:28:31.451Z,11.23
2023-07-11T21:31:04.018Z,11.68
2023-07-11T21:33:32.293Z,11.13
2023-07-11T21:36:01.743Z,11.82
2023-07-11T21:38:30.697Z,11.60
2023-07-11T21:40:59.878Z,11.63
2023-07-11T21:43:26.633Z,11.20
2023-07-11T21:45:56.094Z,10.18
2023-07-11T21:48:28.468Z,11.35
2023-07-11T21:51:00.310Z,17.23
2023-07-11T21:53:30.010Z,11.40
2023-07-11T21:56:13.284Z,11.50
2023-07-11T21:58:39.884Z,13.50
2023-07-11T22:01:07.453Z,11.93
2023-07-11T22:03:36.115Z,10.75
2023-07-11T22:06:11.115Z,12.70
2023-07-11T22:08:37.664Z,12.57
2023-07-11T22:11:04.264Z,11.18
2023-07-11T22:13:33.407Z,10.00
2023-07-11T22:16:00.251Z,10.02
2023-07-11T22:18:30.088Z,12.27
2023-07-11T22:20:57.774Z,12.20
2023-07-11T22:23:24.867Z,10.10
2023-07-11T22:25:51.450Z,11.63
2023-07-11T22:28:21.416Z,13.95
2023-07-11T22:30:50.000Z,11.90
2023-07-11T22:33:18.002Z,10.75
2023-07-11T22:35:45.618Z,11.05
2023-07-11T22:38:17.312Z,15.07
2023-07-11T22:40:46.646Z,13.30
2023-07-11T22:43:30.458Z,11.63
2023-07-11T22:45:59.064Z,10.48
2023-07-11T22:48:28.325Z,10.13
2023-07-11T22:50:59.770Z,11.00
2023-07-11T22:53:29.471Z,10.10
2023-07-11T22:55:59.315Z,10.85
2023-07-11T22:58:34.570Z,10.57
2023-07-11T23:01:04.553Z,11.00
2023-07-11T23:03:31.650Z,9.07
2023-07-11T23:06:26.834Z,11.15
2023-07-11T23:08:54.963Z,11.45
2023-07-11T23:11:22.989Z,10.77
2023-07-11T23:13:49.772Z,10.07
2023-07-11T23:16:28.902Z,10.95
2023-07-11T23:18:57.669Z,9.50
2023-07-11T23:21:24.424Z,10.40
2023-07-11T23:23:51.012Z,9.90
2023-07-11T23:26:18.305Z,9.48
2023-07-11T23:28:45.361Z,9.85
2023-07-11T23:31:13.781Z,10.27
2023-07-11T23:36:15.909Z,10.27
2023-07-11T23:41:15.276Z,11.10
2023-07-11T23:43:43.376Z,11.50
2023-07-11T23:46:32.081Z,10.73
2023-07-11T23:48:59.420Z,9.63
2023-07-11T23:51:28.945Z,9.95
2023-07-11T23:53:55.964Z,11.45
2023-07-11T23:56:29.204Z,9.93
2023-07-11T23:58:57.278Z,10.00
